Time;durP1;ratioP1;P1;durP2;ratioP2;P2;SDS_P1;SDS_P2;PMS_P1;PMS_P2;Temp;Humidity;BMP_temperature;BMP_pressure;BME280_temperature;BME280_humidity;BME280_pressure;Samples;Min_cycle;Max_cycle;Signal;HPM_P1;HPM_P2
2022/03/03 00:01:10;;;;;;;26.83;17.47;;;4.60;95.80;;;;;;5024114;28;20195;-72
2022/03/03 00:03:35;;;;;;;25.03;16.53;;;4.90;95.60;;;;;;5040287;28;20446;-73
2022/03/03 00:06:01;;;;;;;30.30;18.53;;;4.90;95.70;;;;;;5040051;28;20222;-72
2022/03/03 00:08:27;;;;;;;24.60;17.13;;;4.80;95.60;;;;;;5042358;28;20608;-73
2022/03/03 00:10:52;;;;;;;30.63;17.57;;;4.60;96.30;;;;;;5039478;28;20635;-72
2022/03/03 00:13:18;;;;;;;28.17;18.23;;;4.80;96.60;;;;;;5039740;28;20210;-72
2022/03/03 00:15:43;;;;;;;32.73;19.40;;;4.90;96.00;;;;;;5039808;28;20670;-72
2022/03/03 00:18:09;;;;;;;30.80;19.10;;;5.00;95.80;;;;;;5037464;28;20200;-72
2022/03/03 00:20:35;;;;;;;40.57;21.57;;;5.20;95.30;;;;;;5040965;28;21068;-73
2022/03/03 00:23:00;;;;;;;33.10;18.93;;;4.90;95.70;;;;;;5040136;28;20195;-72
2022/03/03 00:25:26;;;;;;;26.20;18.60;;;4.70;96.20;;;;;;5038806;28;20688;-73
2022/03/03 00:27:52;;;;;;;23.37;17.13;;;4.70;96.80;;;;;;5038824;28;20188;-72
2022/03/03 00:30:17;;;;;;;25.80;16.27;;;4.60;96.80;;;;;;5038749;28;20210;-72
2022/03/03 00:32:43;;;;;;;23.90;16.83;;;4.80;96.80;;;;;;5039578;28;20598;-72
2022/03/03 00:35:10;;;;;;;22.73;16.47;;;4.70;96.70;;;;;;5040875;28;20179;-72
2022/03/03 00:37:36;;;;;;;28.80;17.60;;;4.80;96.90;;;;;;5037874;28;20443;-73
2022/03/03 00:40:04;;;;;;;28.17;17.80;;;4.60;97.30;;;;;;5040218;28;20490;-73
2022/03/03 00:42:31;;;;;;;30.80;17.60;;;4.40;97.30;;;;;;5038399;28;20192;-73
2022/03/03 00:44:56;;;;;;;27.53;18.90;;;4.40;98.30;;;;;;5039869;28;20473;-74
2022/03/03 00:47:22;;;;;;;26.23;16.60;;;4.20;98.80;;;;;;5039046;28;20443;-76
2022/03/03 00:49:47;;;;;;;29.40;18.97;;;4.50;98.80;;;;;;5022686;28;20220;-75
2022/03/03 00:52:13;;;;;;;22.20;17.23;;;4.40;98.70;;;;;;5040979;28;20191;-74
2022/03/03 00:54:39;;;;;;;21.50;16.00;;;4.50;98.40;;;;;;5041994;28;20245;-74
2022/03/03 00:57:05;;;;;;;24.57;18.00;;;4.40;98.30;;;;;;5041783;28;20188;-74
2022/03/03 00:59:30;;;;;;;26.00;17.50;;;4.30;98.90;;;;;;5040685;28;21903;-73
2022/03/03 01:01:56;;;;;;;23.90;17.53;;;4.50;98.60;;;;;;5041229;28;20447;-74
2022/03/03 01:04:22;;;;;;;22.50;16.80;;;4.60;98.10;;;;;;5039084;28;20187;-75
2022/03/03 01:06:48;;;;;;;25.23;17.07;;;4.70;97.70;;;;;;5039314;28;20229;-73
2022/03/03 01:09:14;;;;;;;26.90;17.87;;;4.70;97.50;;;;;;5039952;28;20462;-73
2022/03/03 01:11:40;;;;;;;21.87;16.90;;;4.80;97.60;;;;;;5040753;28;20814;-73
2022/03/03 01:14:05;;;;;;;29.20;18.07;;;4.60;97.90;;;;;;5022114;28;20185;-72
2022/03/03 01:16:31;;;;;;;25.30;17.60;;;4.60;97.90;;;;;;5038373;28;20257;-73
2022/03/03 01:18:56;;;;;;;31.03;18.17;;;4.30;98.60;;;;;;5040232;28;20207;-73
2022/03/03 01:21:22;;;;;;;25.00;16.27;;;4.30;99.70;;;;;;5040918;28;20188;-74
2022/03/03 01:23:47;;;;;;;24.17;17.13;;;4.20;99.60;;;;;;5041036;28;20274;-72
2022/03/03 01:26:13;;;;;;;22.07;17.07;;;4.10;99.90;;;;;;5037590;28;20216;-72
2022/03/03 01:28:39;;;;;;;25.17;19.30;;;4.20;99.90;;;;;;5038388;28;20176;-72
2022/03/03 01:31:04;;;;;;;24.97;17.07;;;4.20;99.90;;;;;;5040599;28;20188;-73
2022/03/03 01:33:30;;;;;;;30.10;17.30;;;3.60;99.90;;;;;;5045264;28;20238;-75
2022/03/03 01:35:56;;;;;;;26.97;17.43;;;3.70;99.90;;;;;;5040051;28;20199;-75
2022/03/03 01:38:21;;;;;;;27.90;16.80;;;3.60;99.90;;;;;;5042222;28;20579;-76
2022/03/03 01:40:47;;;;;;;40.20;18.73;;;3.30;99.90;;;;;;5022598;28;20207;-76
2022/03/03 01:43:13;;;;;;;25.40;17.37;;;3.50;99.90;;;;;;5040475;28;20187;-75
2022/03/03 01:45:38;;;;;;;26.30;17.80;;;3.70;99.90;;;;;;5041917;28;20219;-74
2022/03/03 01:48:04;;;;;;;27.93;17.40;;;3.80;99.90;;;;;;5042226;28;20887;-74
2022/03/03 01:50:30;;;;;;;32.33;17.33;;;3.50;99.90;;;;;;5042537;28;20219;-73
2022/03/03 01:52:56;;;;;;;23.07;16.40;;;3.40;99.90;;;;;;5041865;28;20188;-71
2022/03/03 01:55:22;;;;;;;22.23;17.10;;;3.50;99.90;;;;;;5041472;28;20704;-72
2022/03/03 01:57:51;;;;;;;24.43;18.57;;;3.30;99.90;;;;;;5041621;28;20227;-71
2022/03/03 02:00:18;;;;;;;25.00;17.83;;;3.10;99.90;;;;;;5041848;28;20453;-74
2022/03/03 02:02:45;;;;;;;27.53;18.33;;;3.10;99.90;;;;;;5044072;28;20449;-72
2022/03/03 02:05:11;;;;;;;23.97;17.63;;;3.30;99.90;;;;;;5044089;28;20497;-73
2022/03/03 02:07:36;;;;;;;24.10;17.57;;;3.40;99.90;;;;;;5039469;28;20469;-72
2022/03/03 02:10:04;;;;;;;27.33;18.20;;;3.60;99.90;;;;;;5042391;28;20484;-72
2022/03/03 02:12:30;;;;;;;25.73;17.83;;;3.70;99.90;;;;;;5042846;28;20192;-72
2022/03/03 02:14:56;;;;;;;24.93;18.13;;;3.70;99.90;;;;;;5042608;28;20436;-72
2022/03/03 02:17:22;;;;;;;25.97;17.30;;;3.70;99.90;;;;;;5042172;28;20533;-73
2022/03/03 02:19:48;;;;;;;25.40;16.60;;;3.70;99.90;;;;;;5041721;28;20562;-72
2022/03/03 02:22:14;;;;;;;27.63;17.57;;;3.70;99.90;;;;;;5045915;28;20230;-72
2022/03/03 02:24:40;;;;;;;30.87;18.00;;;3.70;99.90;;;;;;5039988;28;20438;-73
2022/03/03 02:27:07;;;;;;;28.53;18.13;;;3.60;99.90;;;;;;5043072;28;20191;-74
2022/03/03 02:29:34;;;;;;;23.97;17.70;;;3.80;99.90;;;;;;5039979;28;20449;-71
2022/03/03 02:32:00;;;;;;;23.60;16.07;;;3.80;99.90;;;;;;5041667;28;20426;-72
2022/03/03 02:34:26;;;;;;;27.30;16.60;;;3.80;99.90;;;;;;5041070;28;20791;-72
2022/03/03 02:36:52;;;;;;;27.20;17.13;;;3.90;99.90;;;;;;5040642;28;20430;-72
2022/03/03 02:39:18;;;;;;;26.20;17.10;;;3.90;99.90;;;;;;5040959;28;20299;-72
2022/03/03 02:41:43;;;;;;;25.77;18.20;;;3.70;99.90;;;;;;5042267;28;20766;-73
2022/03/03 02:44:09;;;;;;;25.13;16.40;;;3.70;99.90;;;;;;5041076;28;20201;-73
2022/03/03 02:46:35;;;;;;;25.60;17.67;;;3.60;99.90;;;;;;5040373;28;20287;-74
2022/03/03 02:49:00;;;;;;;23.50;17.37;;;3.50;99.90;;;;;;5044113;28;21029;-74
2022/03/03 02:51:26;;;;;;;23.63;16.23;;;3.60;99.90;;;;;;5040913;28;20198;-75
2022/03/03 02:53:52;;;;;;;25.30;17.13;;;3.80;99.90;;;;;;5040731;28;20182;-75
2022/03/03 02:56:18;;;;;;;28.20;16.13;;;3.70;99.90;;;;;;5041348;28;20430;-75
2022/03/03 02:58:44;;;;;;;25.57;19.00;;;3.40;99.90;;;;;;5040974;28;20179;-76
2022/03/03 03:01:10;;;;;;;28.23;19.03;;;3.20;99.90;;;;;;5039729;28;20911;-75
2022/03/03 03:03:37;;;;;;;36.20;18.77;;;3.20;99.90;;;;;;5041237;28;20902;-75
2022/03/03 03:06:03;;;;;;;29.63;17.73;;;3.10;99.90;;;;;;5041463;28;20484;-75
2022/03/03 03:08:29;;;;;;;25.77;17.00;;;3.20;99.90;;;;;;5042633;28;20517;-75
2022/03/03 03:10:55;;;;;;;26.97;17.60;;;3.30;99.90;;;;;;5041730;28;20585;-74
2022/03/03 03:13:20;;;;;;;28.63;16.97;;;3.50;99.90;;;;;;5043781;28;20977;-74
2022/03/03 03:15:46;;;;;;;28.53;17.53;;;3.40;99.90;;;;;;5027524;28;21095;-73
2022/03/03 03:18:21;;;;;;;22.83;16.50;;;3.30;99.90;;;;;;5038515;28;20199;-73
2022/03/03 03:20:50;;;;;;;25.97;17.43;;;3.40;99.90;;;;;;5039987;28;20262;-74
2022/03/03 03:23:18;;;;;;;20.27;15.90;;;3.70;99.90;;;;;;5040180;28;20472;-74
2022/03/03 03:25:44;;;;;;;25.90;16.87;;;3.70;99.90;;;;;;5039479;28;20474;-74
2022/03/03 03:28:11;;;;;;;27.13;18.90;;;3.50;99.90;;;;;;5039367;28;20431;-73
2022/03/03 03:30:37;;;;;;;28.97;18.10;;;3.20;99.90;;;;;;5039553;28;20462;-73
2022/03/03 03:33:02;;;;;;;25.63;18.63;;;3.20;99.90;;;;;;5040349;28;20438;-73
2022/03/03 03:35:29;;;;;;;25.13;17.60;;;3.30;99.90;;;;;;5038265;28;20542;-73
2022/03/03 03:37:55;;;;;;;26.87;17.83;;;3.40;99.90;;;;;;5039483;28;20218;-75
2022/03/03 03:40:20;;;;;;;21.90;15.97;;;3.50;99.90;;;;;;5040851;28;20485;-74
2022/03/03 03:42:46;;;;;;;30.77;18.47;;;3.60;99.90;;;;;;5042060;28;20190;-73
2022/03/03 03:45:12;;;;;;;24.07;16.60;;;3.60;99.90;;;;;;5041332;28;20215;-74
2022/03/03 03:47:39;;;;;;;24.00;16.40;;;3.50;99.90;;;;;;5038837;28;20180;-76
2022/03/03 03:50:08;;;;;;;32.67;17.67;;;3.40;99.90;;;;;;5025197;28;20534;-74
2022/03/03 03:52:34;;;;;;;28.40;18.10;;;3.50;99.90;;;;;;5042601;28;20449;-73
2022/03/03 03:55:00;;;;;;;22.03;16.53;;;3.60;99.90;;;;;;5038910;28;20439;-73
2022/03/03 03:57:25;;;;;;;22.70;16.03;;;3.70;99.90;;;;;;5040467;28;20440;-73
2022/03/03 03:59:51;;;;;;;23.60;16.50;;;3.80;99.90;;;;;;5039771;28;20741;-72
2022/03/03 04:02:16;;;;;;;31.50;17.87;;;3.80;99.90;;;;;;5040694;28;20200;-72
2022/03/03 04:04:42;;;;;;;22.10;15.90;;;3.80;99.90;;;;;;5040130;28;20188;-72
2022/03/03 04:07:08;;;;;;;25.50;15.83;;;3.70;99.90;;;;;;5037941;28;20705;-72
2022/03/03 04:09:33;;;;;;;24.67;16.07;;;3.50;99.90;;;;;;5040425;28;20226;-73
2022/03/03 04:11:59;;;;;;;23.73;17.20;;;3.20;99.90;;;;;;5040670;28;20621;-73
2022/03/03 04:14:25;;;;;;;25.37;17.40;;;3.10;99.90;;;;;;5042037;28;20195;-73
2022/03/03 04:16:50;;;;;;;27.63;16.70;;;3.20;99.90;;;;;;5036570;28;20192;-72
2022/03/03 04:19:16;;;;;;;23.03;16.60;;;3.00;99.90;;;;;;5041171;28;20285;-74
2022/03/03 04:21:42;;;;;;;23.70;16.43;;;3.00;99.90;;;;;;5041360;28;20192;-73
2022/03/03 04:24:07;;;;;;;23.70;16.93;;;3.00;99.90;;;;;;5036455;28;20176;-73
2022/03/03 04:26:36;;;;;;;23.27;16.87;;;3.10;99.90;;;;;;5036637;28;20658;-72
2022/03/03 04:29:02;;;;;;;23.30;16.00;;;3.30;99.90;;;;;;5039398;28;20322;-73
2022/03/03 04:31:27;;;;;;;22.83;15.80;;;3.00;99.90;;;;;;5039471;28;20517;-74
2022/03/03 04:33:53;;;;;;;27.97;16.67;;;3.00;99.90;;;;;;5038755;28;20203;-74
2022/03/03 04:36:18;;;;;;;26.27;16.27;;;3.10;99.90;;;;;;5038221;28;20241;-73
2022/03/03 04:38:47;;;;;;;23.33;16.00;;;3.40;99.90;;;;;;5038016;28;20263;-74
2022/03/03 04:41:13;;;;;;;22.03;17.23;;;3.30;99.90;;;;;;5039909;28;20677;-73
2022/03/03 04:43:39;;;;;;;23.50;15.40;;;2.80;99.90;;;;;;5037721;28;20488;-73
2022/03/03 04:46:05;;;;;;;23.80;16.33;;;2.60;99.90;;;;;;5037402;28;20218;-74
2022/03/03 04:48:30;;;;;;;24.10;16.13;;;2.70;99.90;;;;;;5036149;28;20449;-74
2022/03/03 04:50:58;;;;;;;23.20;15.07;;;2.90;99.90;;;;;;5040339;28;20189;-73
2022/03/03 04:53:24;;;;;;;26.60;17.40;;;2.70;99.90;;;;;;5038530;28;20188;-73
2022/03/03 04:55:49;;;;;;;26.90;15.20;;;2.30;99.90;;;;;;5039393;28;20442;-74
2022/03/03 04:58:15;;;;;;;24.77;16.30;;;2.40;99.90;;;;;;5039222;28;20513;-73
2022/03/03 05:00:41;;;;;;;21.50;14.30;;;2.30;99.90;;;;;;5039107;28;20214;-73
2022/03/03 05:03:06;;;;;;;24.87;14.60;;;2.20;99.90;;;;;;5041317;28;20290;-73
2022/03/03 05:05:32;;;;;;;24.50;16.27;;;2.20;99.90;;;;;;5037196;28;20217;-73
2022/03/03 05:07:58;;;;;;;24.67;17.47;;;2.60;99.90;;;;;;5041902;28;20187;-72
2022/03/03 05:10:23;;;;;;;20.23;14.77;;;2.70;99.90;;;;;;5042213;28;20222;-73
2022/03/03 05:12:49;;;;;;;24.23;15.50;;;2.50;99.90;;;;;;5042369;28;20203;-74
2022/03/03 05:15:14;;;;;;;24.13;15.57;;;2.30;99.90;;;;;;5042040;28;20195;-72
2022/03/03 05:17:40;;;;;;;31.17;16.30;;;2.10;99.90;;;;;;5042494;28;20194;-73
2022/03/03 05:20:06;;;;;;;24.53;16.30;;;2.10;99.90;;;;;;5045238;28;20227;-72
2022/03/03 05:22:31;;;;;;;27.27;15.47;;;2.20;99.90;;;;;;5042627;28;20201;-72
2022/03/03 05:24:57;;;;;;;24.03;17.20;;;2.30;99.90;;;;;;5043723;28;20464;-71
2022/03/03 05:27:23;;;;;;;26.43;16.77;;;2.20;99.90;;;;;;5042487;28;20188;-71
2022/03/03 05:29:48;;;;;;;28.40;15.30;;;2.30;99.90;;;;;;5043367;28;20203;-72
2022/03/03 05:32:14;;;;;;;21.40;14.70;;;2.20;99.90;;;;;;5040199;28;20194;-72
2022/03/03 05:34:40;;;;;;;27.63;17.30;;;1.90;99.90;;;;;;5042743;28;20199;-72
2022/03/03 05:37:06;;;;;;;29.33;18.30;;;1.70;99.90;;;;;;5042019;28;20196;-75
2022/03/03 05:39:32;;;;;;;27.57;17.50;;;1.90;99.90;;;;;;5043064;28;20265;-75
2022/03/03 05:41:58;;;;;;;23.93;16.57;;;2.10;99.90;;;;;;5041560;28;21078;-75
2022/03/03 05:44:24;;;;;;;23.07;17.47;;;2.10;99.90;;;;;;5042097;28;20195;-76
2022/03/03 05:46:50;;;;;;;25.80;14.60;;;2.00;99.90;;;;;;5038636;28;20216;-74
2022/03/03 05:49:19;;;;;;;26.57;16.80;;;2.10;99.90;;;;;;5041938;28;20459;-74
2022/03/03 05:51:45;;;;;;;27.60;17.10;;;2.20;99.90;;;;;;5042360;28;20524;-74
2022/03/03 05:54:10;;;;;;;25.17;16.80;;;2.10;99.90;;;;;;5042819;28;20503;-74
2022/03/03 05:56:39;;;;;;;27.40;18.00;;;2.10;99.90;;;;;;5043904;28;20443;-75
2022/03/03 05:59:10;;;;;;;25.67;16.63;;;2.00;99.90;;;;;;5042985;28;20645;-74
2022/03/03 06:01:39;;;;;;;31.90;16.93;;;1.90;99.90;;;;;;5039053;28;20471;-71
2022/03/03 06:04:07;;;;;;;30.97;17.67;;;2.10;99.90;;;;;;5041172;28;20538;-72
2022/03/03 06:06:36;;;;;;;25.27;17.30;;;2.10;99.90;;;;;;5043300;28;20633;-72
2022/03/03 06:09:11;;;;;;;28.37;17.00;;;2.20;99.90;;;;;;5041207;28;20454;-72
2022/03/03 06:11:48;;;;;;;26.13;16.10;;;2.50;99.90;;;;;;5040979;28;20874;-72
2022/03/03 06:14:26;;;;;;;24.73;16.33;;;2.60;99.90;;;;;;5042570;28;20811;-72
2022/03/03 06:16:54;;;;;;;29.53;17.03;;;2.70;99.90;;;;;;5041080;28;20504;-74
2022/03/03 06:19:20;;;;;;;28.27;18.83;;;2.80;99.90;;;;;;5026461;28;20462;-73
2022/03/03 06:21:46;;;;;;;26.13;17.60;;;2.80;99.90;;;;;;5042421;28;20436;-72
2022/03/03 06:24:12;;;;;;;24.37;16.67;;;2.80;99.90;;;;;;5042829;28;20435;-74
2022/03/03 06:26:37;;;;;;;27.77;17.90;;;2.80;99.90;;;;;;5044347;28;20307;-77
2022/03/03 06:29:04;;;;;;;24.23;18.10;;;2.50;99.90;;;;;;5021857;28;20221;-76
2022/03/03 06:31:29;;;;;;;26.97;16.60;;;2.60;99.90;;;;;;5030482;28;20875;-78
2022/03/03 06:33:55;;;;;;;24.90;14.70;;;2.80;99.90;;;;;;5044379;28;20434;-73
2022/03/03 06:36:20;;;;;;;24.40;15.63;;;2.70;99.90;;;;;;5035543;28;20257;-73
2022/03/03 06:38:46;;;;;;;25.70;15.43;;;2.60;99.90;;;;;;5045324;28;20203;-73
2022/03/03 06:41:12;;;;;;;29.30;18.23;;;2.70;99.90;;;;;;5041106;28;20187;-73
2022/03/03 06:43:38;;;;;;;26.80;17.37;;;2.50;99.90;;;;;;5038783;28;20322;-72
2022/03/03 06:46:05;;;;;;;25.87;16.33;;;1.80;99.90;;;;;;5044324;28;20220;-73
2022/03/03 06:48:31;;;;;;;26.83;17.73;;;2.00;99.90;;;;;;5042271;28;20777;-73
2022/03/03 06:50:57;;;;;;;25.70;16.20;;;1.80;99.90;;;;;;5039087;28;20530;-74
2022/03/03 06:53:28;;;;;;;26.40;17.80;;;1.50;99.90;;;;;;5040954;28;20478;-74
2022/03/03 06:56:04;;;;;;;26.97;15.63;;;1.30;99.90;;;;;;5038413;28;20202;-72
2022/03/03 06:58:31;;;;;;;29.03;17.00;;;1.40;99.90;;;;;;5039886;28;20471;-78
2022/03/03 07:00:58;;;;;;;31.23;17.40;;;1.20;99.90;;;;;;5024933;28;20425;-77
2022/03/03 07:03:24;;;;;;;28.47;16.30;;;1.10;99.90;;;;;;5035349;28;20520;-76
2022/03/03 07:05:51;;;;;;;23.40;16.50;;;1.10;99.90;;;;;;5042577;28;20466;-79
2022/03/03 07:08:20;;;;;;;24.37;15.37;;;1.10;99.90;;;;;;5024970;28;20452;-78
2022/03/03 07:10:47;;;;;;;27.30;16.13;;;1.10;99.90;;;;;;5038832;28;20554;-72
2022/03/03 07:13:16;;;;;;;26.37;16.70;;;1.50;99.90;;;;;;5040988;28;20436;-73
2022/03/03 07:15:51;;;;;;;25.53;15.20;;;1.70;99.90;;;;;;5042478;28;20437;-72
2022/03/03 07:18:20;;;;;;;24.73;15.00;;;1.60;99.90;;;;;;5038687;28;20456;-75
2022/03/03 07:21:03;;;;;;;20.60;14.90;;;1.30;99.90;;;;;;5039977;28;20619;-76
2022/03/03 07:23:36;;;;;;;29.80;16.20;;;1.30;99.90;;;;;;5038980;28;20438;-74
2022/03/03 07:26:05;;;;;;;19.97;14.47;;;1.30;99.90;;;;;;5039851;28;20453;-73
2022/03/03 07:28:32;;;;;;;20.00;13.73;;;1.30;99.90;;;;;;5044076;28;20431;-75
2022/03/03 07:31:02;;;;;;;23.13;14.70;;;1.20;99.90;;;;;;5041149;28;20436;-74
2022/03/03 07:33:27;;;;;;;22.77;14.60;;;1.20;99.90;;;;;;5040969;28;20444;-74
2022/03/03 07:35:57;;;;;;;24.53;15.30;;;1.30;99.90;;;;;;5039664;28;20443;-73
2022/03/03 07:38:32;;;;;;;21.00;15.17;;;1.30;99.90;;;;;;5040624;28;20226;-75
2022/03/03 07:40:59;;;;;;;24.33;14.70;;;1.50;99.90;;;;;;5044402;28;20440;-73
2022/03/03 07:43:25;;;;;;;19.83;13.43;;;1.80;99.90;;;;;;5038651;28;20481;-70
2022/03/03 07:45:50;;;;;;;24.47;15.73;;;1.70;99.90;;;;;;5040869;28;20496;-76
2022/03/03 07:48:17;;;;;;;25.60;15.23;;;1.70;99.90;;;;;;5041740;28;20191;-73
2022/03/03 07:50:43;;;;;;;29.60;15.57;;;1.70;99.90;;;;;;5039234;28;20592;-71
2022/03/03 07:53:11;;;;;;;22.00;14.37;;;1.70;99.90;;;;;;5038545;28;20443;-71
2022/03/03 07:55:47;;;;;;;24.17;15.80;;;1.90;99.90;;;;;;5039227;28;20457;-73
2022/03/03 07:58:18;;;;;;;22.73;13.80;;;2.00;99.90;;;;;;5042636;28;20503;-73
2022/03/03 08:00:49;;;;;;;28.60;15.17;;;2.50;99.90;;;;;;5039468;28;20465;-72
2022/03/03 08:03:20;;;;;;;22.70;16.07;;;2.90;99.90;;;;;;5035699;28;20447;-71
2022/03/03 08:05:49;;;;;;;27.77;15.17;;;3.10;99.90;;;;;;5039517;28;20477;-72
2022/03/03 08:08:20;;;;;;;24.07;15.93;;;3.20;99.90;;;;;;5042126;28;20538;-72
2022/03/03 08:10:47;;;;;;;22.77;16.60;;;3.10;99.90;;;;;;5040834;28;21396;-72
2022/03/03 08:13:17;;;;;;;26.77;15.63;;;2.90;99.90;;;;;;5039360;28;20437;-75
2022/03/03 08:15:44;;;;;;;22.20;15.13;;;3.10;99.90;;;;;;5020490;28;21014;-72
2022/03/03 08:18:10;;;;;;;29.43;16.70;;;3.50;99.90;;;;;;5037928;28;20450;-74
2022/03/03 08:20:38;;;;;;;25.80;18.73;;;3.70;99.90;;;;;;5023497;28;20628;-76
2022/03/03 08:23:05;;;;;;;24.80;16.80;;;3.80;99.90;;;;;;5037766;28;20434;-75
2022/03/03 08:25:33;;;;;;;23.60;16.63;;;3.90;99.90;;;;;;5041711;28;20493;-75
2022/03/03 08:27:59;;;;;;;23.90;15.80;;;3.70;99.90;;;;;;5038706;28;20463;-76
2022/03/03 08:30:25;;;;;;;22.90;15.40;;;3.40;99.90;;;;;;5040697;28;21238;-75
2022/03/03 08:33:19;;;;;;;25.70;15.53;;;3.50;99.90;;;;;;5039936;28;20431;-73
2022/03/03 08:35:52;;;;;;;22.67;15.67;;;3.70;99.90;;;;;;5028045;28;20533;-74
2022/03/03 08:38:32;;;;;;;27.30;17.27;;;3.60;99.90;;;;;;5035605;28;20430;-74
2022/03/03 08:40:59;;;;;;;27.80;18.10;;;3.70;99.90;;;;;;5039926;28;20943;-73
2022/03/03 08:43:27;;;;;;;22.87;17.57;;;3.90;99.90;;;;;;5038471;28;20938;-72
2022/03/03 08:46:02;;;;;;;28.43;18.00;;;3.90;99.90;;;;;;5038094;28;20520;-76
2022/03/03 08:48:30;;;;;;;25.70;17.90;;;4.00;99.90;;;;;;5041500;28;20482;-77
2022/03/03 08:50:57;;;;;;;26.77;17.00;;;4.00;99.90;;;;;;5033202;28;20445;-78
2022/03/03 08:53:23;;;;;;;29.37;18.73;;;4.10;99.90;;;;;;5041511;28;20426;-75
2022/03/03 08:55:49;;;;;;;29.90;19.00;;;4.10;99.90;;;;;;5038430;28;21042;-75
2022/03/03 08:58:14;;;;;;;25.00;18.17;;;4.20;99.90;;;;;;5042200;28;20563;-76
2022/03/03 09:00:41;;;;;;;28.07;17.27;;;4.20;99.90;;;;;;5041307;28;20203;-75
2022/03/03 09:03:07;;;;;;;27.70;17.37;;;4.40;99.90;;;;;;5040807;28;20214;-75
2022/03/03 09:05:35;;;;;;;32.63;18.13;;;4.20;99.90;;;;;;5042419;28;20814;-77
2022/03/03 09:08:01;;;;;;;28.40;18.87;;;4.20;99.90;;;;;;5038463;28;20514;-74
2022/03/03 09:10:28;;;;;;;29.40;18.07;;;4.40;99.90;;;;;;5040297;28;20533;-76
2022/03/03 09:12:53;;;;;;;24.93;17.37;;;4.50;99.90;;;;;;5040632;28;20184;-74
2022/03/03 09:15:19;;;;;;;25.10;18.53;;;4.40;99.90;;;;;;5038942;28;20423;-73
2022/03/03 09:17:45;;;;;;;29.23;18.47;;;4.40;99.90;;;;;;5039624;28;20226;-75
2022/03/03 09:20:13;;;;;;;27.97;17.90;;;4.60;99.90;;;;;;5038596;28;21810;-79
2022/03/03 09:22:40;;;;;;;34.17;18.30;;;4.80;99.90;;;;;;5024768;28;20660;-75
2022/03/03 09:25:06;;;;;;;26.63;18.87;;;5.00;99.90;;;;;;5027185;28;20985;-77
2022/03/03 09:27:32;;;;;;;28.87;19.37;;;5.00;99.90;;;;;;5039398;28;20540;-79
2022/03/03 09:29:58;;;;;;;28.57;18.97;;;5.10;99.90;;;;;;5039854;28;20532;-80
2022/03/03 09:32:23;;;;;;;30.83;20.20;;;5.20;99.90;;;;;;5040554;28;20189;-76
2022/03/03 09:34:49;;;;;;;29.40;19.87;;;5.20;99.90;;;;;;5039112;28;20179;-80
2022/03/03 09:37:15;;;;;;;34.43;21.33;;;5.30;99.90;;;;;;5039297;28;20944;-79
2022/03/03 09:39:43;;;;;;;26.43;18.13;;;5.40;99.90;;;;;;5039652;28;20439;-74
2022/03/03 09:42:10;;;;;;;33.47;20.60;;;5.40;99.90;;;;;;5022941;28;20458;-78
2022/03/03 09:44:36;;;;;;;28.37;17.67;;;5.50;99.90;;;;;;5040425;28;20829;-78
2022/03/03 09:47:02;;;;;;;25.17;17.73;;;5.60;99.90;;;;;;5038489;28;20496;-78
2022/03/03 09:49:28;;;;;;;24.50;17.33;;;5.60;99.90;;;;;;5041821;28;20504;-81
2022/03/03 09:51:53;;;;;;;25.43;18.07;;;5.60;99.90;;;;;;5041336;28;20942;-82
2022/03/03 09:54:19;;;;;;;24.60;19.07;;;5.60;99.90;;;;;;5043235;28;20576;-80
2022/03/03 09:56:48;;;;;;;29.90;20.03;;;5.60;99.90;;;;;;5044097;28;20187;-76
2022/03/03 09:59:14;;;;;;;29.77;19.73;;;5.70;99.90;;;;;;5045267;28;20211;-79
2022/03/03 10:01:40;;;;;;;29.80;20.80;;;5.50;99.90;;;;;;5044339;28;20441;-75
2022/03/03 10:04:21;;;;;;;29.43;20.40;;;5.50;99.90;;;;;;5029803;28;20469;-89
2022/03/03 10:06:48;;;;;;;30.33;19.20;;;5.60;99.90;;;;;;5030580;28;20462;-75
2022/03/03 10:09:16;;;;;;;32.23;20.13;;;5.70;99.90;;;;;;5041907;28;20463;-78
2022/03/03 10:11:48;;;;;;;32.83;21.00;;;5.80;99.90;;;;;;5052181;28;20433;-79
2022/03/03 10:14:14;;;;;;;29.33;20.00;;;6.00;99.90;;;;;;5046476;28;20772;-83
2022/03/03 10:16:48;;;;;;;27.13;19.17;;;6.00;99.90;;;;;;5046102;28;20439;-81
2022/03/03 10:19:14;;;;;;;29.07;20.40;;;6.00;99.90;;;;;;5033621;28;20545;-83
2022/03/03 10:21:43;;;;;;;31.40;20.63;;;6.10;99.90;;;;;;5030653;28;21604;-82
2022/03/03 10:24:24;;;;;;;35.40;21.30;;;6.10;99.90;;;;;;5027489;28;20212;-81
2022/03/03 10:27:01;;;;;;;26.53;19.43;;;6.10;99.90;;;;;;5044984;28;20683;-79
2022/03/03 10:29:27;;;;;;;27.20;18.90;;;6.20;99.90;;;;;;5042070;28;21249;-77
2022/03/03 10:31:55;;;;;;;26.03;19.40;;;6.40;99.90;;;;;;5037994;28;20487;-75
2022/03/03 10:34:32;;;;;;;28.67;20.00;;;6.50;99.90;;;;;;5039631;28;20430;-72
2022/03/03 10:37:01;;;;;;;28.77;19.63;;;6.60;99.90;;;;;;5039081;28;20438;-71
2022/03/03 10:39:48;;;;;;;33.37;21.50;;;6.60;99.90;;;;;;5041024;28;20446;-76
2022/03/03 10:42:19;;;;;;;31.10;20.47;;;6.60;99.90;;;;;;5039151;28;20438;-85
2022/03/03 10:44:46;;;;;;;28.67;19.57;;;6.70;99.90;;;;;;5037509;28;20461;-85
2022/03/03 10:47:15;;;;;;;32.30;21.33;;;6.80;99.90;;;;;;5039085;28;20847;-79
2022/03/03 10:49:44;;;;;;;29.87;19.50;;;6.80;99.90;;;;;;5042664;28;20459;-73
2022/03/03 10:52:18;;;;;;;29.73;19.50;;;6.90;99.90;;;;;;5041922;28;21240;-71
2022/03/03 10:55:03;;;;;;;26.37;19.07;;;6.80;99.90;;;;;;5045734;28;20434;-77
2022/03/03 10:57:38;;;;;;;30.10;21.30;;;6.90;99.90;;;;;;5039711;28;20429;-77
2022/03/03 11:00:10;;;;;;;25.83;19.30;;;6.90;99.90;;;;;;5043639;28;20487;-73
2022/03/03 11:02:37;;;;;;;26.07;19.47;;;7.00;99.90;;;;;;5021178;28;20537;-75
2022/03/03 11:05:04;;;;;;;28.30;18.70;;;7.20;99.90;;;;;;5040053;28;20433;-76
2022/03/03 11:07:30;;;;;;;30.03;18.43;;;7.30;99.90;;;;;;5043480;28;20454;-76
2022/03/03 11:09:56;;;;;;;28.50;20.33;;;7.40;99.90;;;;;;5021024;28;20450;-76
2022/03/03 11:12:22;;;;;;;27.50;20.03;;;7.40;99.90;;;;;;5042614;28;20426;-76
2022/03/03 11:14:49;;;;;;;27.07;18.73;;;7.50;99.90;;;;;;5042686;28;21183;-76
2022/03/03 11:17:15;;;;;;;30.10;19.70;;;7.60;99.90;;;;;;5041974;28;20261;-76
2022/03/03 11:19:41;;;;;;;25.53;18.30;;;7.70;99.90;;;;;;5040886;28;20504;-78
2022/03/03 11:22:07;;;;;;;27.10;19.73;;;7.80;99.90;;;;;;5040513;28;20438;-82
2022/03/03 11:24:39;;;;;;;25.97;18.50;;;7.70;99.90;;;;;;5041561;28;20464;-79
2022/03/03 11:27:06;;;;;;;29.03;20.97;;;7.70;99.90;;;;;;5040441;28;21285;-79
2022/03/03 11:29:36;;;;;;;26.37;19.00;;;7.70;99.90;;;;;;5023623;28;20798;-83
2022/03/03 11:32:03;;;;;;;30.00;19.07;;;7.80;99.90;;;;;;5039319;28;20461;-77
2022/03/03 11:34:32;;;;;;;25.10;19.57;;;7.70;99.90;;;;;;5040291;28;20845;-77
2022/03/03 11:37:17;;;;;;;29.77;21.50;;;7.90;99.90;;;;;;5038545;28;20650;-77
2022/03/03 11:39:46;;;;;;;33.20;21.27;;;7.90;99.90;;;;;;5039396;28;21028;-76
2022/03/03 11:42:34;;;;;;;30.37;19.53;;;7.90;99.90;;;;;;5041238;28;20491;-78
2022/03/03 11:45:09;;;;;;;29.97;19.30;;;8.00;99.90;;;;;;5041981;28;20445;-78
2022/03/03 11:47:37;;;;;;;27.90;19.73;;;8.00;99.90;;;;;;5039567;28;20437;-76
2022/03/03 11:50:25;;;;;;;28.63;20.57;;;8.20;99.90;;;;;;5040220;28;20472;-77
2022/03/03 11:52:56;;;;;;;32.60;19.00;;;8.20;99.90;;;;;;5041121;28;20989;-76
2022/03/03 11:55:33;;;;;;;27.77;19.67;;;8.30;99.90;;;;;;5040293;28;20468;-78
2022/03/03 11:58:06;;;;;;;29.83;19.90;;;8.50;99.90;;;;;;5039749;28;20434;-82
2022/03/03 12:00:34;;;;;;;31.83;20.53;;;8.80;99.60;;;;;;5041330;28;20451;-75
2022/03/03 12:03:06;;;;;;;29.00;21.67;;;9.00;99.60;;;;;;5042479;28;20940;-75
2022/03/03 12:05:33;;;;;;;25.43;19.07;;;9.20;98.50;;;;;;5040745;28;20469;-83
2022/03/03 12:08:23;;;;;;;30.70;18.93;;;9.30;98.20;;;;;;5038851;28;21197;-78
2022/03/03 12:11:16;;;;;;;27.30;19.43;;;9.60;98.00;;;;;;5008207;28;21084;-76
2022/03/03 12:13:51;;;;;;;29.27;20.10;;;10.30;96.00;;;;;;5038498;28;20445;-75
2022/03/03 12:16:27;;;;;;;29.63;20.50;;;11.10;94.80;;;;;;5041531;28;20422;-77
2022/03/03 12:18:55;;;;;;;25.97;21.10;;;11.90;93.50;;;;;;5038685;28;20445;-75
2022/03/03 12:21:33;;;;;;;27.60;20.20;;;12.90;89.00;;;;;;5041202;28;20492;-73
2022/03/03 12:24:28;;;;;;;28.20;21.17;;;13.50;82.40;;;;;;5041704;28;20438;-75
2022/03/03 12:26:59;;;;;;;26.47;19.97;;;14.20;78.20;;;;;;5040205;28;20455;-76
2022/03/03 12:29:41;;;;;;;26.53;19.97;;;14.60;73.30;;;;;;5043278;28;20548;-77
2022/03/03 12:32:24;;;;;;;29.10;21.03;;;15.50;68.40;;;;;;5035400;28;20433;-78
2022/03/03 12:34:55;;;;;;;28.37;21.50;;;16.20;66.10;;;;;;5042172;28;20523;-78
2022/03/03 12:37:21;;;;;;;25.13;20.50;;;16.10;62.80;;;;;;5045165;28;20442;-76
2022/03/03 12:40:00;;;;;;;28.60;19.77;;;16.70;62.20;;;;;;5042181;28;20442;-74